sensor_id;sensor_type;location;lat;lon;timestamp;temperature;humidity
21502;DHT22;27639;48.674;9.242;2022-12-29T00:01:35;10.40;56.60
21502;DHT22;27639;48.674;9.242;2022-12-29T00:04:00;10.30;56.60
21502;DHT22;27639;48.674;9.242;2022-12-29T00:06:26;10.30;56.80
21502;DHT22;27639;48.674;9.242;2022-12-29T00:08:52;10.20;56.90
21502;DHT22;27639;48.674;9.242;2022-12-29T00:11:21;10.20;57.10
21502;DHT22;27639;48.674;9.242;2022-12-29T00:13:47;10.20;57.10
21502;DHT22;27639;48.674;9.242;2022-12-29T00:16:33;10.30;57.20
21502;DHT22;27639;48.674;9.242;2022-12-29T00:18:58;10.30;57.20
21502;DHT22;27639;48.674;9.242;2022-12-29T00:21:25;10.40;57.20
21502;DHT22;27639;48.674;9.242;2022-12-29T00:24:14;10.40;57.10
21502;DHT22;27639;48.674;9.242;2022-12-29T00:29:48;10.50;57.20
21502;DHT22;27639;48.674;9.242;2022-12-29T00:32:32;10.60;57.40
21502;DHT22;27639;48.674;9.242;2022-12-29T00:35:25;10.60;57.30
21502;DHT22;27639;48.674;9.242;2022-12-29T00:37:52;10.70;57.10
21502;DHT22;27639;48.674;9.242;2022-12-29T00:40:48;10.80;57.10
21502;DHT22;27639;48.674;9.242;2022-12-29T00:43:32;10.80;57.00
21502;DHT22;27639;48.674;9.242;2022-12-29T00:46:17;10.90;56.80
21502;DHT22;27639;48.674;9.242;2022-12-29T00:48:42;11.00;56.70
21502;DHT22;27639;48.674;9.242;2022-12-29T00:51:26;11.00;56.60
21502;DHT22;27639;48.674;9.242;2022-12-29T00:53:52;11.10;56.50
21502;DHT22;27639;48.674;9.242;2022-12-29T00:56:18;11.10;56.40
21502;DHT22;27639;48.674;9.242;2022-12-29T00:58:43;11.20;56.30
21502;DHT22;27639;48.674;9.242;2022-12-29T01:01:09;11.20;56.30
21502;DHT22;27639;48.674;9.242;2022-12-29T01:03:36;11.20;56.10
21502;DHT22;27639;48.674;9.242;2022-12-29T01:06:04;11.30;56.10
21502;DHT22;27639;48.674;9.242;2022-12-29T01:08:30;11.30;56.10
21502;DHT22;27639;48.674;9.242;2022-12-29T01:11:10;11.30;55.90
21502;DHT22;27639;48.674;9.242;2022-12-29T01:13:37;11.40;55.70
21502;DHT22;27639;48.674;9.242;2022-12-29T01:16:04;11.40;55.70
21502;DHT22;27639;48.674;9.242;2022-12-29T01:18:30;11.40;55.60
21502;DHT22;27639;48.674;9.242;2022-12-29T01:21:00;11.40;55.50
21502;DHT22;27639;48.674;9.242;2022-12-29T01:23:26;11.50;55.60
21502;DHT22;27639;48.674;9.242;2022-12-29T01:25:52;11.50;55.40
21502;DHT22;27639;48.674;9.242;2022-12-29T01:28:17;11.50;55.40
21502;DHT22;27639;48.674;9.242;2022-12-29T01:30:43;11.50;55.40
21502;DHT22;27639;48.674;9.242;2022-12-29T01:33:08;11.50;55.30
21502;DHT22;27639;48.674;9.242;2022-12-29T01:35:34;11.60;55.40
21502;DHT22;27639;48.674;9.242;2022-12-29T01:38:00;11.50;55.30
21502;DHT22;27639;48.674;9.242;2022-12-29T01:40:25;11.50;55.30
21502;DHT22;27639;48.674;9.242;2022-12-29T01:42:51;11.50;55.30
21502;DHT22;27639;48.674;9.242;2022-12-29T01:45:17;11.50;55.20
21502;DHT22;27639;48.674;9.242;2022-12-29T01:47:49;11.60;55.30
21502;DHT22;27639;48.674;9.242;2022-12-29T01:53:02;11.60;55.30
21502;DHT22;27639;48.674;9.242;2022-12-29T01:55:30;11.60;55.10
21502;DHT22;27639;48.674;9.242;2022-12-29T01:58:01;11.70;55.40
21502;DHT22;27639;48.674;9.242;2022-12-29T02:00:27;11.70;55.30
21502;DHT22;27639;48.674;9.242;2022-12-29T02:02:53;11.70;55.20
21502;DHT22;27639;48.674;9.242;2022-12-29T02:05:42;11.70;55.30
21502;DHT22;27639;48.674;9.242;2022-12-29T02:08:11;11.80;55.20
21502;DHT22;27639;48.674;9.242;2022-12-29T02:10:39;11.80;55.30
21502;DHT22;27639;48.674;9.242;2022-12-29T02:13:05;11.90;55.20
21502;DHT22;27639;48.674;9.242;2022-12-29T02:18:16;12.10;54.70
21502;DHT22;27639;48.674;9.242;2022-12-29T02:35:23;12.50;53.50
21502;DHT22;27639;48.674;9.242;2022-12-29T02:45:35;12.80;53.10
21502;DHT22;27639;48.674;9.242;2022-12-29T02:51:07;12.90;52.60
21502;DHT22;27639;48.674;9.242;2022-12-29T02:53:35;12.90;52.60
21502;DHT22;27639;48.674;9.242;2022-12-29T02:56:20;13.00;52.70
21502;DHT22;27639;48.674;9.242;2022-12-29T02:58:45;13.00;52.60
21502;DHT22;27639;48.674;9.242;2022-12-29T03:11:19;13.30;51.90
21502;DHT22;27639;48.674;9.242;2022-12-29T03:16:55;13.20;51.90
21502;DHT22;27639;48.674;9.242;2022-12-29T03:19:37;13.20;52.00
21502;DHT22;27639;48.674;9.242;2022-12-29T03:22:07;13.30;51.80
21502;DHT22;27639;48.674;9.242;2022-12-29T03:24:54;13.30;52.20
21502;DHT22;27639;48.674;9.242;2022-12-29T03:27:26;13.30;51.60
21502;DHT22;27639;48.674;9.242;2022-12-29T03:29:58;13.40;51.50
21502;DHT22;27639;48.674;9.242;2022-12-29T03:32:36;13.40;51.50
21502;DHT22;27639;48.674;9.242;2022-12-29T03:35:04;13.40;51.30
21502;DHT22;27639;48.674;9.242;2022-12-29T03:37:35;13.40;51.40
21502;DHT22;27639;48.674;9.242;2022-12-29T03:40:03;13.40;51.40
21502;DHT22;27639;48.674;9.242;2022-12-29T03:42:31;13.40;51.50
21502;DHT22;27639;48.674;9.242;2022-12-29T03:44:57;13.40;51.60
21502;DHT22;27639;48.674;9.242;2022-12-29T03:47:24;13.40;51.70
21502;DHT22;27639;48.674;9.242;2022-12-29T03:49:50;13.40;51.60
21502;DHT22;27639;48.674;9.242;2022-12-29T03:52:16;13.50;51.80
21502;DHT22;27639;48.674;9.242;2022-12-29T03:54:42;13.50;51.60
21502;DHT22;27639;48.674;9.242;2022-12-29T03:57:08;13.60;51.60
21502;DHT22;27639;48.674;9.242;2022-12-29T03:59:34;13.50;51.40
21502;DHT22;27639;48.674;9.242;2022-12-29T04:02:00;13.50;51.50
21502;DHT22;27639;48.674;9.242;2022-12-29T04:04:25;13.50;51.60
21502;DHT22;27639;48.674;9.242;2022-12-29T04:06:51;13.50;51.50
21502;DHT22;27639;48.674;9.242;2022-12-29T04:09:16;13.50;51.50
21502;DHT22;27639;48.674;9.242;2022-12-29T04:11:42;13.50;51.70
21502;DHT22;27639;48.674;9.242;2022-12-29T04:14:08;13.50;51.60
21502;DHT22;27639;48.674;9.242;2022-12-29T04:16:33;13.50;52.50
21502;DHT22;27639;48.674;9.242;2022-12-29T04:19:01;13.50;51.90
21502;DHT22;27639;48.674;9.242;2022-12-29T04:21:27;13.50;51.90
21502;DHT22;27639;48.674;9.242;2022-12-29T04:23:53;13.50;51.80
21502;DHT22;27639;48.674;9.242;2022-12-29T04:26:18;13.60;51.80
21502;DHT22;27639;48.674;9.242;2022-12-29T04:28:44;13.50;51.80
21502;DHT22;27639;48.674;9.242;2022-12-29T04:31:10;13.60;51.80
21502;DHT22;27639;48.674;9.242;2022-12-29T04:33:35;13.60;51.80
21502;DHT22;27639;48.674;9.242;2022-12-29T04:36:01;13.50;51.80
21502;DHT22;27639;48.674;9.242;2022-12-29T04:38:26;13.50;51.80
21502;DHT22;27639;48.674;9.242;2022-12-29T04:40:52;13.50;51.80
21502;DHT22;27639;48.674;9.242;2022-12-29T04:43:18;13.50;51.80
21502;DHT22;27639;48.674;9.242;2022-12-29T04:45:45;13.50;51.90
21502;DHT22;27639;48.674;9.242;2022-12-29T04:48:11;13.50;52.10
21502;DHT22;27639;48.674;9.242;2022-12-29T04:50:38;13.40;52.00
21502;DHT22;27639;48.674;9.242;2022-12-29T04:53:04;13.40;52.00
21502;DHT22;27639;48.674;9.242;2022-12-29T04:55:29;13.50;52.10
21502;DHT22;27639;48.674;9.242;2022-12-29T04:57:55;13.50;52.10
21502;DHT22;27639;48.674;9.242;2022-12-29T05:00:21;13.50;52.30
21502;DHT22;27639;48.674;9.242;2022-12-29T05:02:46;13.50;52.10
21502;DHT22;27639;48.674;9.242;2022-12-29T05:05:12;13.50;52.00
21502;DHT22;27639;48.674;9.242;2022-12-29T05:07:38;13.50;52.10
21502;DHT22;27639;48.674;9.242;2022-12-29T05:10:04;13.50;52.20
21502;DHT22;27639;48.674;9.242;2022-12-29T05:12:31;13.50;52.00
21502;DHT22;27639;48.674;9.242;2022-12-29T05:14:56;13.50;51.90
21502;DHT22;27639;48.674;9.242;2022-12-29T05:17:22;13.60;52.00
21502;DHT22;27639;48.674;9.242;2022-12-29T05:19:47;13.50;51.90
21502;DHT22;27639;48.674;9.242;2022-12-29T05:22:13;13.50;52.20
21502;DHT22;27639;48.674;9.242;2022-12-29T05:24:39;13.50;52.10
21502;DHT22;27639;48.674;9.242;2022-12-29T05:27:05;13.50;52.10
21502;DHT22;27639;48.674;9.242;2022-12-29T05:29:30;13.50;52.10
21502;DHT22;27639;48.674;9.242;2022-12-29T05:31:56;13.40;52.10
21502;DHT22;27639;48.674;9.242;2022-12-29T05:34:22;13.40;52.20
21502;DHT22;27639;48.674;9.242;2022-12-29T05:36:47;13.50;52.20
21502;DHT22;27639;48.674;9.242;2022-12-29T05:39:13;13.50;52.00
21502;DHT22;27639;48.674;9.242;2022-12-29T05:41:38;13.50;51.90
21502;DHT22;27639;48.674;9.242;2022-12-29T05:44:04;13.50;51.80
21502;DHT22;27639;48.674;9.242;2022-12-29T05:46:30;13.50;51.80
21502;DHT22;27639;48.674;9.242;2022-12-29T05:48:55;13.50;51.70
21502;DHT22;27639;48.674;9.242;2022-12-29T05:51:21;13.50;51.60
21502;DHT22;27639;48.674;9.242;2022-12-29T05:53:49;13.50;51.60
21502;DHT22;27639;48.674;9.242;2022-12-29T05:56:15;13.40;51.50
21502;DHT22;27639;48.674;9.242;2022-12-29T05:58:41;13.40;51.50
21502;DHT22;27639;48.674;9.242;2022-12-29T06:01:06;13.40;51.60
21502;DHT22;27639;48.674;9.242;2022-12-29T06:03:32;13.30;51.60
21502;DHT22;27639;48.674;9.242;2022-12-29T06:05:57;13.30;51.90
21502;DHT22;27639;48.674;9.242;2022-12-29T06:08:23;13.30;52.00
21502;DHT22;27639;48.674;9.242;2022-12-29T06:10:50;13.30;52.10
21502;DHT22;27639;48.674;9.242;2022-12-29T06:13:15;13.30;51.90
21502;DHT22;27639;48.674;9.242;2022-12-29T06:15:41;13.30;51.80
21502;DHT22;27639;48.674;9.242;2022-12-29T06:18:06;13.40;52.50
21502;DHT22;27639;48.674;9.242;2022-12-29T06:20:32;13.50;51.70
21502;DHT22;27639;48.674;9.242;2022-12-29T06:22:58;13.40;51.50
21502;DHT22;27639;48.674;9.242;2022-12-29T06:25:23;13.40;51.40
21502;DHT22;27639;48.674;9.242;2022-12-29T06:27:49;13.40;51.50
21502;DHT22;27639;48.674;9.242;2022-12-29T06:30:14;13.40;51.40
21502;DHT22;27639;48.674;9.242;2022-12-29T06:32:41;13.40;51.40
21502;DHT22;27639;48.674;9.242;2022-12-29T06:35:07;13.50;51.50
21502;DHT22;27639;48.674;9.242;2022-12-29T06:37:33;13.40;51.40
21502;DHT22;27639;48.674;9.242;2022-12-29T06:39:58;13.30;51.50
21502;DHT22;27639;48.674;9.242;2022-12-29T06:42:24;13.40;51.60
21502;DHT22;27639;48.674;9.242;2022-12-29T06:44:49;13.30;51.60
21502;DHT22;27639;48.674;9.242;2022-12-29T06:47:15;13.30;51.70
21502;DHT22;27639;48.674;9.242;2022-12-29T06:49:41;13.30;51.80
21502;DHT22;27639;48.674;9.242;2022-12-29T06:52:06;13.30;51.80
21502;DHT22;27639;48.674;9.242;2022-12-29T06:54:32;13.30;51.90
21502;DHT22;27639;48.674;9.242;2022-12-29T06:56:57;13.30;51.90
21502;DHT22;27639;48.674;9.242;2022-12-29T06:59:24;13.40;51.90
21502;DHT22;27639;48.674;9.242;2022-12-29T07:01:50;13.40;52.00
21502;DHT22;27639;48.674;9.242;2022-12-29T07:04:15;13.40;52.00
21502;DHT22;27639;48.674;9.242;2022-12-29T07:06:41;13.40;52.00
21502;DHT22;27639;48.674;9.242;2022-12-29T07:09:07;13.40;52.00
21502;DHT22;27639;48.674;9.242;2022-12-29T07:11:33;13.50;52.00
21502;DHT22;27639;48.674;9.242;2022-12-29T07:13:59;13.60;51.90
21502;DHT22;27639;48.674;9.242;2022-12-29T07:16:25;13.50;51.70
21502;DHT22;27639;48.674;9.242;2022-12-29T07:18:50;13.60;51.90
21502;DHT22;27639;48.674;9.242;2022-12-29T07:21:17;13.50;51.90
21502;DHT22;27639;48.674;9.242;2022-12-29T07:23:43;13.60;52.00
21502;DHT22;27639;48.674;9.242;2022-12-29T07:26:11;13.60;52.00
21502;DHT22;27639;48.674;9.242;2022-12-29T07:28:37;13.60;51.90
21502;DHT22;27639;48.674;9.242;2022-12-29T07:31:04;13.60;52.00
21502;DHT22;27639;48.674;9.242;2022-12-29T07:33:30;13.60;52.20
21502;DHT22;27639;48.674;9.242;2022-12-29T07:35:57;13.70;52.10
21502;DHT22;27639;48.674;9.242;2022-12-29T07:38:23;13.70;52.70
21502;DHT22;27639;48.674;9.242;2022-12-29T07:40:49;13.70;51.90
21502;DHT22;27639;48.674;9.242;2022-12-29T07:43:14;13.70;52.00
21502;DHT22;27639;48.674;9.242;2022-12-29T07:45:40;13.70;52.10
21502;DHT22;27639;48.674;9.242;2022-12-29T07:48:06;13.70;52.00
21502;DHT22;27639;48.674;9.242;2022-12-29T07:50:35;13.70;52.10
21502;DHT22;27639;48.674;9.242;2022-12-29T07:53:01;13.80;52.10
21502;DHT22;27639;48.674;9.242;2022-12-29T07:55:26;13.80;52.10
21502;DHT22;27639;48.674;9.242;2022-12-29T07:57:55;13.70;52.10
21502;DHT22;27639;48.674;9.242;2022-12-29T08:00:22;13.80;52.10
21502;DHT22;27639;48.674;9.242;2022-12-29T08:02:48;13.80;52.20
21502;DHT22;27639;48.674;9.242;2022-12-29T08:05:13;13.90;52.20
21502;DHT22;27639;48.674;9.242;2022-12-29T08:07:39;13.90;52.20
21502;DHT22;27639;48.674;9.242;2022-12-29T08:10:06;13.90;52.20
21502;DHT22;27639;48.674;9.242;2022-12-29T08:12:31;13.90;52.30
21502;DHT22;27639;48.674;9.242;2022-12-29T08:14:57;13.90;52.30
21502;DHT22;27639;48.674;9.242;2022-12-29T08:17:22;14.00;52.50
21502;DHT22;27639;48.674;9.242;2022-12-29T08:19:48;14.00;52.40
21502;DHT22;27639;48.674;9.242;2022-12-29T08:22:14;14.00;52.20
21502;DHT22;27639;48.674;9.242;2022-12-29T08:24:40;14.00;52.30
21502;DHT22;27639;48.674;9.242;2022-12-29T08:27:06;14.10;52.30
21502;DHT22;27639;48.674;9.242;2022-12-29T08:29:31;14.10;52.10
21502;DHT22;27639;48.674;9.242;2022-12-29T08:31:57;14.20;52.30
21502;DHT22;27639;48.674;9.242;2022-12-29T08:34:22;14.20;52.00
21502;DHT22;27639;48.674;9.242;2022-12-29T08:36:48;14.30;51.80
21502;DHT22;27639;48.674;9.242;2022-12-29T08:39:13;14.40;51.80
21502;DHT22;27639;48.674;9.242;2022-12-29T08:41:39;14.40;51.70
21502;DHT22;27639;48.674;9.242;2022-12-29T08:44:05;14.40;51.40
21502;DHT22;27639;48.674;9.242;2022-12-29T08:46:30;14.40;51.40
21502;DHT22;27639;48.674;9.242;2022-12-29T08:48:56;14.50;51.20
21502;DHT22;27639;48.674;9.242;2022-12-29T08:51:22;14.50;51.20
21502;DHT22;27639;48.674;9.242;2022-12-29T08:53:47;14.60;51.00
21502;DHT22;27639;48.674;9.242;2022-12-29T08:56:13;14.70;51.10
21502;DHT22;27639;48.674;9.242;2022-12-29T08:58:39;14.60;50.70
21502;DHT22;27639;48.674;9.242;2022-12-29T09:01:04;14.70;50.70
21502;DHT22;27639;48.674;9.242;2022-12-29T09:03:30;14.70;50.50
21502;DHT22;27639;48.674;9.242;2022-12-29T09:05:56;14.70;50.40
21502;DHT22;27639;48.674;9.242;2022-12-29T09:08:22;14.70;50.40
21502;DHT22;27639;48.674;9.242;2022-12-29T09:10:49;14.70;50.40
21502;DHT22;27639;48.674;9.242;2022-12-29T09:13:15;14.70;50.10
21502;DHT22;27639;48.674;9.242;2022-12-29T09:15:41;14.80;50.20
21502;DHT22;27639;48.674;9.242;2022-12-29T09:18:08;14.70;50.00
21502;DHT22;27639;48.674;9.242;2022-12-29T09:20:34;14.80;50.10
21502;DHT22;27639;48.674;9.242;2022-12-29T09:23:00;14.70;50.20
21502;DHT22;27639;48.674;9.242;2022-12-29T09:25:26;14.70;50.00
21502;DHT22;27639;48.674;9.242;2022-12-29T09:27:52;14.70;50.00
21502;DHT22;27639;48.674;9.242;2022-12-29T09:30:19;14.80;50.10
21502;DHT22;27639;48.674;9.242;2022-12-29T09:32:45;14.80;50.00
21502;DHT22;27639;48.674;9.242;2022-12-29T09:35:12;14.80;50.10
21502;DHT22;27639;48.674;9.242;2022-12-29T09:37:37;14.80;50.20
21502;DHT22;27639;48.674;9.242;2022-12-29T09:40:04;14.80;49.80
21502;DHT22;27639;48.674;9.242;2022-12-29T09:42:49;14.80;50.10
21502;DHT22;27639;48.674;9.242;2022-12-29T09:45:28;14.80;49.90
21502;DHT22;27639;48.674;9.242;2022-12-29T09:47:54;14.80;50.30
21502;DHT22;27639;48.674;9.242;2022-12-29T09:50:24;14.80;50.40
21502;DHT22;27639;48.674;9.242;2022-12-29T09:53:03;14.90;50.40
21502;DHT22;27639;48.674;9.242;2022-12-29T09:58:43;14.90;50.50
21502;DHT22;27639;48.674;9.242;2022-12-29T10:01:30;15.00;50.60
21502;DHT22;27639;48.674;9.242;2022-12-29T10:03:57;15.00;50.60
21502;DHT22;27639;48.674;9.242;2022-12-29T10:06:51;15.00;50.80
21502;DHT22;27639;48.674;9.242;2022-12-29T10:09:26;15.10;50.70
21502;DHT22;27639;48.674;9.242;2022-12-29T10:20:07;15.10;51.00
21502;DHT22;27639;48.674;9.242;2022-12-29T10:25:26;15.10;51.10
21502;DHT22;27639;48.674;9.242;2022-12-29T10:27:56;15.10;51.20
21502;DHT22;27639;48.674;9.242;2022-12-29T10:30:24;15.00;51.40
21502;DHT22;27639;48.674;9.242;2022-12-29T10:32:53;15.00;51.60
21502;DHT22;27639;48.674;9.242;2022-12-29T10:35:40;15.00;51.70
21502;DHT22;27639;48.674;9.242;2022-12-29T10:38:38;15.00;51.50
21502;DHT22;27639;48.674;9.242;2022-12-29T10:41:18;15.00;51.50
21502;DHT22;27639;48.674;9.242;2022-12-29T10:43:51;15.10;51.60
21502;DHT22;27639;48.674;9.242;2022-12-29T10:46:21;15.00;51.60
21502;DHT22;27639;48.674;9.242;2022-12-29T10:48:48;15.10;51.70
21502;DHT22;27639;48.674;9.242;2022-12-29T10:51:22;15.20;51.60
21502;DHT22;27639;48.674;9.242;2022-12-29T10:56:30;15.20;51.50
21502;DHT22;27639;48.674;9.242;2022-12-29T10:59:08;15.20;51.20
21502;DHT22;27639;48.674;9.242;2022-12-29T11:01:41;15.10;51.40
21502;DHT22;27639;48.674;9.242;2022-12-29T11:06:55;15.20;51.50
21502;DHT22;27639;48.674;9.242;2022-12-29T11:09:27;15.20;51.60
21502;DHT22;27639;48.674;9.242;2022-12-29T11:11:53;15.30;51.70
21502;DHT22;27639;48.674;9.242;2022-12-29T11:14:28;15.20;51.80
21502;DHT22;27639;48.674;9.242;2022-12-29T11:17:01;15.30;51.80
21502;DHT22;27639;48.674;9.242;2022-12-29T11:19:29;15.30;51.80
21502;DHT22;27639;48.674;9.242;2022-12-29T11:22:21;15.30;51.90
21502;DHT22;27639;48.674;9.242;2022-12-29T11:24:49;15.30;51.80
21502;DHT22;27639;48.674;9.242;2022-12-29T11:27:20;15.30;52.10
21502;DHT22;27639;48.674;9.242;2022-12-29T11:29:48;15.30;52.10
21502;DHT22;27639;48.674;9.242;2022-12-29T11:32:20;15.30;52.10
21502;DHT22;27639;48.674;9.242;2022-12-29T11:34:45;15.30;52.10
21502;DHT22;27639;48.674;9.242;2022-12-29T11:40:02;15.30;52.20
21502;DHT22;27639;48.674;9.242;2022-12-29T11:42:40;15.30;52.50
21502;DHT22;27639;48.674;9.242;2022-12-29T11:45:24;15.20;52.60
21502;DHT22;27639;48.674;9.242;2022-12-29T11:47:54;15.20;52.90
21502;DHT22;27639;48.674;9.242;2022-12-29T11:50:25;15.20;53.40
21502;DHT22;27639;48.674;9.242;2022-12-29T11:53:13;15.20;53.60
21502;DHT22;27639;48.674;9.242;2022-12-29T11:55:53;15.30;53.60
21502;DHT22;27639;48.674;9.242;2022-12-29T11:58:27;15.20;53.80
21502;DHT22;27639;48.674;9.242;2022-12-29T12:00:54;15.20;54.00
21502;DHT22;27639;48.674;9.242;2022-12-29T12:03:24;15.20;54.00
21502;DHT22;27639;48.674;9.242;2022-12-29T12:06:00;15.20;54.10
21502;DHT22;27639;48.674;9.242;2022-12-29T12:08:47;15.20;54.30
21502;DHT22;27639;48.674;9.242;2022-12-29T12:11:19;15.10;54.30
21502;DHT22;27639;48.674;9.242;2022-12-29T12:13:59;15.10;54.30
21502;DHT22;27639;48.674;9.242;2022-12-29T12:16:37;15.10;54.40
21502;DHT22;27639;48.674;9.242;2022-12-29T12:19:14;15.00;54.30
21502;DHT22;27639;48.674;9.242;2022-12-29T12:21:48;15.00;54.40
21502;DHT22;27639;48.674;9.242;2022-12-29T12:27:36;15.00;54.90
21502;DHT22;27639;48.674;9.242;2022-12-29T12:30:13;15.00;55.10
21502;DHT22;27639;48.674;9.242;2022-12-29T12:32:53;14.90;55.90
21502;DHT22;27639;48.674;9.242;2022-12-29T12:41:20;14.90;57.20
21502;DHT22;27639;48.674;9.242;2022-12-29T12:44:01;14.90;57.60
21502;DHT22;27639;48.674;9.242;2022-12-29T12:52:22;14.90;57.40
21502;DHT22;27639;48.674;9.242;2022-12-29T12:55:10;14.90;57.50
21502;DHT22;27639;48.674;9.242;2022-12-29T12:57:45;14.80;57.80
21502;DHT22;27639;48.674;9.242;2022-12-29T13:00:15;14.80;57.90
21502;DHT22;27639;48.674;9.242;2022-12-29T13:16:33;14.80;57.80
21502;DHT22;27639;48.674;9.242;2022-12-29T13:19:26;14.80;57.80
21502;DHT22;27639;48.674;9.242;2022-12-29T13:24:35;14.70;57.80
21502;DHT22;27639;48.674;9.242;2022-12-29T13:27:20;14.70;57.80
21502;DHT22;27639;48.674;9.242;2022-12-29T13:30:10;14.70;57.70
21502;DHT22;27639;48.674;9.242;2022-12-29T13:32:42;14.60;57.70
21502;DHT22;27639;48.674;9.242;2022-12-29T13:35:18;14.70;57.80
21502;DHT22;27639;48.674;9.242;2022-12-29T13:37:58;14.70;57.70
21502;DHT22;27639;48.674;9.242;2022-12-29T13:40:27;14.70;57.70
21502;DHT22;27639;48.674;9.242;2022-12-29T13:42:55;14.80;57.80
21502;DHT22;27639;48.674;9.242;2022-12-29T13:45:23;14.90;57.70
21502;DHT22;27639;48.674;9.242;2022-12-29T13:47:56;14.90;57.50
21502;DHT22;27639;48.674;9.242;2022-12-29T13:50:26;14.90;57.50
21502;DHT22;27639;48.674;9.242;2022-12-29T13:53:15;14.90;57.80
21502;DHT22;27639;48.674;9.242;2022-12-29T13:55:57;14.90;57.80
21502;DHT22;27639;48.674;9.242;2022-12-29T14:06:24;15.00;57.70
21502;DHT22;27639;48.674;9.242;2022-12-29T14:09:05;15.00;57.70
21502;DHT22;27639;48.674;9.242;2022-12-29T14:11:36;15.00;57.60
21502;DHT22;27639;48.674;9.242;2022-12-29T14:14:22;15.00;57.80
21502;DHT22;27639;48.674;9.242;2022-12-29T14:16:48;15.00;57.50
21502;DHT22;27639;48.674;9.242;2022-12-29T14:19:22;15.00;57.70
21502;DHT22;27639;48.674;9.242;2022-12-29T14:22:03;15.00;57.50
21502;DHT22;27639;48.674;9.242;2022-12-29T14:26:58;15.00;57.60
21502;DHT22;27639;48.674;9.242;2022-12-29T14:31:52;15.10;57.40
21502;DHT22;27639;48.674;9.242;2022-12-29T14:36:54;15.10;57.30
21502;DHT22;27639;48.674;9.242;2022-12-29T14:39:36;15.00;57.20
21502;DHT22;27639;48.674;9.242;2022-12-29T14:47:32;14.80;57.10
21502;DHT22;27639;48.674;9.242;2022-12-29T14:53:05;14.80;57.30
21502;DHT22;27639;48.674;9.242;2022-12-29T14:58:20;14.70;57.20
21502;DHT22;27639;48.674;9.242;2022-12-29T15:00:48;14.70;57.20
21502;DHT22;27639;48.674;9.242;2022-12-29T15:03:22;14.70;57.30
21502;DHT22;27639;48.674;9.242;2022-12-29T15:06:06;14.70;57.20
21502;DHT22;27639;48.674;9.242;2022-12-29T15:08:52;14.50;57.10
21502;DHT22;27639;48.674;9.242;2022-12-29T15:11:22;14.60;57.30
21502;DHT22;27639;48.674;9.242;2022-12-29T15:13:49;14.60;57.30
21502;DHT22;27639;48.674;9.242;2022-12-29T15:16:34;14.50;57.30
21502;DHT22;27639;48.674;9.242;2022-12-29T15:19:03;14.60;57.20
21502;DHT22;27639;48.674;9.242;2022-12-29T15:21:32;14.50;57.30
21502;DHT22;27639;48.674;9.242;2022-12-29T15:23:59;14.50;57.30
21502;DHT22;27639;48.674;9.242;2022-12-29T15:26:37;14.50;57.20
21502;DHT22;27639;48.674;9.242;2022-12-29T15:29:03;14.40;57.10
21502;DHT22;27639;48.674;9.242;2022-12-29T15:31:29;14.40;57.10
21502;DHT22;27639;48.674;9.242;2022-12-29T15:34:02;14.40;57.10
21502;DHT22;27639;48.674;9.242;2022-12-29T15:36:38;14.40;56.90
21502;DHT22;27639;48.674;9.242;2022-12-29T15:39:30;14.40;56.90
21502;DHT22;27639;48.674;9.242;2022-12-29T15:41:59;14.30;56.80
21502;DHT22;27639;48.674;9.242;2022-12-29T15:44:41;14.30;57.00
21502;DHT22;27639;48.674;9.242;2022-12-29T15:47:22;14.40;56.80
21502;DHT22;27639;48.674;9.242;2022-12-29T15:49:53;14.30;56.70
21502;DHT22;27639;48.674;9.242;2022-12-29T15:52:20;14.20;56.70
21502;DHT22;27639;48.674;9.242;2022-12-29T15:54:49;14.30;56.70
21502;DHT22;27639;48.674;9.242;2022-12-29T15:57:42;14.30;56.40
21502;DHT22;27639;48.674;9.242;2022-12-29T16:00:22;14.40;56.10
21502;DHT22;27639;48.674;9.242;2022-12-29T16:02:48;14.40;56.00
21502;DHT22;27639;48.674;9.242;2022-12-29T16:05:16;14.40;56.10
21502;DHT22;27639;48.674;9.242;2022-12-29T16:07:52;14.40;55.90
21502;DHT22;27639;48.674;9.242;2022-12-29T16:10:39;14.40;55.70
21502;DHT22;27639;48.674;9.242;2022-12-29T16:13:16;14.40;55.60
21502;DHT22;27639;48.674;9.242;2022-12-29T16:15:48;14.40;55.60
21502;DHT22;27639;48.674;9.242;2022-12-29T16:18:23;14.50;55.70
21502;DHT22;27639;48.674;9.242;2022-12-29T16:20:51;14.40;55.70
21502;DHT22;27639;48.674;9.242;2022-12-29T16:23:21;14.50;55.70
21502;DHT22;27639;48.674;9.242;2022-12-29T16:25:47;14.60;55.50
21502;DHT22;27639;48.674;9.242;2022-12-29T16:28:24;14.60;55.40
21502;DHT22;27639;48.674;9.242;2022-12-29T16:31:05;14.60;55.40
21502;DHT22;27639;48.674;9.242;2022-12-29T16:33:38;14.60;55.60
21502;DHT22;27639;48.674;9.242;2022-12-29T16:36:28;14.60;56.00
21502;DHT22;27639;48.674;9.242;2022-12-29T16:41:39;14.60;56.10
21502;DHT22;27639;48.674;9.242;2022-12-29T16:44:12;14.70;56.40
21502;DHT22;27639;48.674;9.242;2022-12-29T16:46:44;14.70;56.30
21502;DHT22;27639;48.674;9.242;2022-12-29T16:49:21;14.70;56.50
21502;DHT22;27639;48.674;9.242;2022-12-29T16:51:46;14.70;56.60
21502;DHT22;27639;48.674;9.242;2022-12-29T16:54:29;14.60;56.70
21502;DHT22;27639;48.674;9.242;2022-12-29T16:56:55;14.60;56.60
21502;DHT22;27639;48.674;9.242;2022-12-29T16:59:40;14.60;56.70
21502;DHT22;27639;48.674;9.242;2022-12-29T17:02:15;14.70;56.80
21502;DHT22;27639;48.674;9.242;2022-12-29T17:04:41;14.70;56.90
21502;DHT22;27639;48.674;9.242;2022-12-29T17:07:18;14.70;57.00
21502;DHT22;27639;48.674;9.242;2022-12-29T17:09:44;14.70;57.00
21502;DHT22;27639;48.674;9.242;2022-12-29T17:12:23;14.70;57.10
21502;DHT22;27639;48.674;9.242;2022-12-29T17:15:01;14.60;57.20
21502;DHT22;27639;48.674;9.242;2022-12-29T17:17:38;14.60;57.30
21502;DHT22;27639;48.674;9.242;2022-12-29T17:20:14;14.60;57.70
21502;DHT22;27639;48.674;9.242;2022-12-29T17:22:40;14.50;58.20
21502;DHT22;27639;48.674;9.242;2022-12-29T17:25:06;14.50;57.60
21502;DHT22;27639;48.674;9.242;2022-12-29T17:27:35;14.50;57.50
21502;DHT22;27639;48.674;9.242;2022-12-29T17:30:05;14.50;57.50
21502;DHT22;27639;48.674;9.242;2022-12-29T17:32:34;14.50;57.70
21502;DHT22;27639;48.674;9.242;2022-12-29T17:35:00;14.40;57.80
21502;DHT22;27639;48.674;9.242;2022-12-29T17:37:36;14.40;57.90
21502;DHT22;27639;48.674;9.242;2022-12-29T17:40:04;14.30;57.90
21502;DHT22;27639;48.674;9.242;2022-12-29T17:42:31;14.30;58.20
21502;DHT22;27639;48.674;9.242;2022-12-29T17:44:59;14.30;58.30
21502;DHT22;27639;48.674;9.242;2022-12-29T17:47:25;14.20;58.40
21502;DHT22;27639;48.674;9.242;2022-12-29T17:49:51;14.20;58.50
21502;DHT22;27639;48.674;9.242;2022-12-29T17:52:16;14.20;58.50
21502;DHT22;27639;48.674;9.242;2022-12-29T17:54:51;14.20;58.50
21502;DHT22;27639;48.674;9.242;2022-12-29T17:57:18;14.20;58.90
21502;DHT22;27639;48.674;9.242;2022-12-29T17:59:44;14.10;58.40